Time;durP1;ratioP1;P1;durP2;ratioP2;P2;SDS_P1;SDS_P2;PMS_P1;PMS_P2;Temp;Humidity;BMP_temperature;BMP_pressure;BME280_temperature;BME280_humidity;BME280_pressure;Samples;Min_cycle;Max_cycle;Signal;HPM_P1;HPM_P2
2024/01/05 00:00:32;;;;;;;2.60;0.25;;;8.30;99.90;;;;;;5002723;28;20045;-72
2024/01/05 00:03:00;;;;;;;0.50;0.30;;;8.30;99.90;;;;;;5007230;28;20041;-67
2024/01/05 00:05:26;;;;;;;1.23;0.30;;;8.20;99.90;;;;;;5016146;28;20033;-68
2024/01/05 00:07:53;;;;;;;1.80;0.40;;;8.20;99.90;;;;;;5012490;28;20029;-67
2024/01/05 00:10:18;;;;;;;1.40;0.28;;;8.20;99.90;;;;;;5012425;28;20040;-63
2024/01/05 00:12:44;;;;;;;1.15;0.20;;;8.20;99.90;;;;;;5012019;28;20033;-65
2024/01/05 00:15:13;;;;;;;1.15;0.20;;;8.20;99.90;;;;;;5012340;28;20033;-69
2024/01/05 00:17:38;;;;;;;0.70;0.20;;;8.20;99.90;;;;;;5005984;28;20491;-67
2024/01/05 00:20:06;;;;;;;1.10;0.22;;;8.20;99.90;;;;;;5012623;28;20117;-67
2024/01/05 00:22:32;;;;;;;0.70;0.20;;;8.20;99.90;;;;;;5010563;28;20033;-66
2024/01/05 00:24:58;;;;;;;0.95;0.38;;;8.10;99.90;;;;;;5006903;28;20037;-66
2024/01/05 00:27:23;;;;;;;1.98;0.85;;;8.10;99.90;;;;;;5012926;28;20037;-69
2024/01/05 00:29:49;;;;;;;0.32;0.20;;;8.10;99.90;;;;;;5014313;28;20034;-66
2024/01/05 00:32:15;;;;;;;1.65;0.65;;;8.10;99.90;;;;;;5011381;28;20088;-76
2024/01/05 00:34:40;;;;;;;0.80;0.30;;;8.20;99.90;;;;;;5006084;28;20166;-73
2024/01/05 00:37:06;;;;;;;1.10;0.25;;;8.20;99.90;;;;;;5008446;28;20042;-73
2024/01/05 00:39:32;;;;;;;1.48;0.30;;;8.10;99.90;;;;;;5010988;28;20034;-71
2024/01/05 00:41:57;;;;;;;1.20;0.30;;;8.20;99.90;;;;;;5010487;28;20049;-72
2024/01/05 00:44:23;;;;;;;1.80;0.30;;;8.10;99.90;;;;;;5008824;28;20052;-71
2024/01/05 00:46:49;;;;;;;1.27;0.30;;;8.10;99.90;;;;;;5012466;28;20036;-72
2024/01/05 00:49:14;;;;;;;1.73;0.40;;;8.10;99.90;;;;;;5006643;28;20037;-74
2024/01/05 00:51:40;;;;;;;1.13;0.35;;;8.10;99.90;;;;;;5013876;28;20392;-68
2024/01/05 00:54:06;;;;;;;2.22;0.30;;;8.10;99.90;;;;;;5008158;28;20435;-64
2024/01/05 00:56:32;;;;;;;1.90;0.30;;;8.10;99.90;;;;;;5014985;28;20026;-64
2024/01/05 00:58:57;;;;;;;1.42;0.20;;;8.10;99.90;;;;;;5013893;28;20518;-66
2024/01/05 01:01:23;;;;;;;1.30;0.20;;;8.10;99.90;;;;;;5012595;28;20365;-68
2024/01/05 01:03:48;;;;;;;1.08;0.55;;;8.10;99.90;;;;;;5014359;28;20052;-65
2024/01/05 01:06:14;;;;;;;1.95;0.25;;;8.10;99.90;;;;;;5013634;28;20044;-65
2024/01/05 01:08:39;;;;;;;1.35;0.30;;;8.10;99.90;;;;;;5011679;28;20179;-66
2024/01/05 01:11:12;;;;;;;3.63;0.60;;;8.00;99.90;;;;;;5013566;28;20138;-72
2024/01/05 01:13:37;;;;;;;1.15;0.40;;;8.10;99.90;;;;;;5014748;28;20029;-73
2024/01/05 01:16:03;;;;;;;4.90;3.05;;;8.10;99.90;;;;;;5011867;28;20041;-71
2024/01/05 01:18:29;;;;;;;1.67;0.25;;;8.10;99.90;;;;;;5012518;28;20168;-71
2024/01/05 01:20:54;;;;;;;1.52;0.30;;;8.10;99.90;;;;;;5013864;28;20119;-70
2024/01/05 01:23:20;;;;;;;2.65;0.40;;;8.10;99.90;;;;;;5009919;28;20506;-76
2024/01/05 01:25:45;;;;;;;2.10;0.30;;;8.20;99.90;;;;;;5015218;28;20129;-76
2024/01/05 01:28:11;;;;;;;2.17;0.47;;;8.10;99.90;;;;;;5016775;28;20026;-73
2024/01/05 01:30:37;;;;;;;0.57;0.22;;;8.10;99.90;;;;;;5012452;28;20893;-72
2024/01/05 01:33:02;;;;;;;1.30;0.40;;;8.20;99.90;;;;;;5018956;28;20018;-71
2024/01/05 01:35:28;;;;;;;2.97;0.35;;;8.20;99.90;;;;;;5015329;28;20045;-71
2024/01/05 01:37:53;;;;;;;1.80;0.30;;;8.20;99.90;;;;;;5009581;28;20498;-71
2024/01/05 01:40:19;;;;;;;2.50;0.47;;;8.20;99.90;;;;;;5008111;28;20365;-71
2024/01/05 01:42:45;;;;;;;1.08;0.25;;;8.30;99.90;;;;;;5008672;28;20045;-72
2024/01/05 01:45:12;;;;;;;2.10;0.40;;;8.30;99.90;;;;;;5008931;28;20033;-72
2024/01/05 01:47:38;;;;;;;1.35;0.60;;;8.30;99.90;;;;;;5009496;28;20512;-72
2024/01/05 01:50:04;;;;;;;1.33;0.45;;;8.20;99.90;;;;;;5006301;28;20048;-72
2024/01/05 01:52:29;;;;;;;1.45;0.38;;;8.30;99.90;;;;;;5008712;28;20033;-72
2024/01/05 01:54:55;;;;;;;1.73;0.50;;;8.30;99.90;;;;;;5008987;28;20034;-73
2024/01/05 01:57:22;;;;;;;2.53;0.68;;;8.30;99.90;;;;;;5009115;28;20500;-73
2024/01/05 01:59:48;;;;;;;0.47;0.20;;;8.30;99.90;;;;;;5010835;28;20645;-73
2024/01/05 02:02:13;;;;;;;0.57;0.25;;;8.30;99.90;;;;;;5008518;28;20041;-70
2024/01/05 02:04:40;;;;;;;0.52;0.20;;;8.30;99.90;;;;;;5009471;28;20419;-74
2024/01/05 02:07:06;;;;;;;0.25;0.20;;;8.30;99.90;;;;;;5009330;28;20429;-74
2024/01/05 02:09:33;;;;;;;0.70;0.30;;;8.30;99.90;;;;;;5013202;28;20030;-74
2024/01/05 02:11:58;;;;;;;1.15;0.30;;;8.30;99.90;;;;;;5005983;28;20033;-75
2024/01/05 02:14:24;;;;;;;2.28;0.32;;;8.30;99.90;;;;;;5007803;28;20028;-74
2024/01/05 02:16:49;;;;;;;1.70;0.50;;;8.30;99.90;;;;;;5009330;28;20033;-75
2024/01/05 02:19:15;;;;;;;2.03;0.60;;;8.30;99.90;;;;;;5012679;28;20029;-75
2024/01/05 02:21:45;;;;;;;1.50;0.60;;;8.30;99.90;;;;;;5009856;28;20071;-75
2024/01/05 02:24:12;;;;;;;1.73;0.52;;;8.40;99.90;;;;;;5007735;28;20471;-71
2024/01/05 02:26:39;;;;;;;1.45;0.30;;;8.40;99.90;;;;;;5010337;28;20037;-71
2024/01/05 02:29:04;;;;;;;2.65;0.40;;;8.30;99.90;;;;;;5010676;28;20066;-72
2024/01/05 02:31:30;;;;;;;2.83;0.55;;;8.30;99.90;;;;;;5006692;28;20802;-71
2024/01/05 02:33:56;;;;;;;1.33;0.30;;;8.30;99.90;;;;;;5009189;28;20285;-72
2024/01/05 02:36:21;;;;;;;1.92;0.43;;;8.30;99.90;;;;;;5009278;28;20330;-71
2024/01/05 02:38:47;;;;;;;1.58;0.40;;;8.40;99.90;;;;;;5008728;28;20055;-69
2024/01/05 02:41:12;;;;;;;2.05;0.50;;;8.30;99.90;;;;;;5007152;28;20057;-70
2024/01/05 02:43:38;;;;;;;3.38;1.02;;;8.20;99.90;;;;;;5010128;28;20032;-70
2024/01/05 02:46:03;;;;;;;2.63;0.90;;;8.30;99.90;;;;;;5007693;28;20064;-70
2024/01/05 02:48:29;;;;;;;4.93;2.03;;;8.30;99.90;;;;;;5009097;28;20029;-70
2024/01/05 02:50:55;;;;;;;1.85;0.30;;;8.40;99.90;;;;;;5008104;28;20041;-70
2024/01/05 02:53:20;;;;;;;4.10;0.30;;;8.30;99.90;;;;;;5005170;28;20022;-70
2024/01/05 02:55:46;;;;;;;0.43;0.22;;;8.30;99.90;;;;;;5007702;28;20482;-70
2024/01/05 02:58:11;;;;;;;1.40;0.40;;;8.30;99.90;;;;;;5006090;28;20030;-69
2024/01/05 03:00:37;;;;;;;0.55;0.10;;;8.20;99.90;;;;;;5006832;28;20045;-69
2024/01/05 03:03:04;;;;;;;0.90;0.30;;;8.10;99.90;;;;;;5013700;28;20477;-69
2024/01/05 03:05:30;;;;;;;1.90;0.40;;;8.10;99.90;;;;;;4995443;28;20560;-70
2024/01/05 03:07:56;;;;;;;0.98;0.28;;;8.10;99.90;;;;;;5017078;28;20029;-69
2024/01/05 03:10:21;;;;;;;1.52;0.38;;;8.10;99.90;;;;;;5010791;28;20040;-70
2024/01/05 03:12:48;;;;;;;0.57;0.20;;;8.10;99.90;;;;;;5014931;28;20039;-69
2024/01/05 03:15:14;;;;;;;0.47;0.30;;;8.00;99.90;;;;;;5012755;28;20159;-69
2024/01/05 03:17:39;;;;;;;2.72;0.43;;;8.00;99.90;;;;;;5009266;28;21077;-69
2024/01/05 03:20:09;;;;;;;1.40;0.30;;;8.00;99.90;;;;;;5010374;28;20048;-71
2024/01/05 03:22:35;;;;;;;1.80;1.02;;;7.90;99.90;;;;;;5008183;28;20037;-69
2024/01/05 03:25:00;;;;;;;4.70;1.77;;;8.00;99.90;;;;;;5007179;28;20084;-71
2024/01/05 03:27:26;;;;;;;3.40;1.98;;;7.90;99.90;;;;;;5006290;28;20063;-70
2024/01/05 03:29:52;;;;;;;2.25;0.55;;;7.80;99.90;;;;;;5008133;28;20057;-69
2024/01/05 03:32:17;;;;;;;0.63;0.30;;;7.80;99.90;;;;;;5005878;28;20106;-70
2024/01/05 03:34:43;;;;;;;4.82;3.25;;;7.80;99.90;;;;;;5007562;28;20104;-71
2024/01/05 03:37:08;;;;;;;2.92;1.92;;;7.90;99.90;;;;;;5010502;28;20045;-70
2024/01/05 03:39:34;;;;;;;2.17;1.40;;;7.90;99.90;;;;;;5005415;28;20065;-70
2024/01/05 03:42:00;;;;;;;2.22;0.95;;;7.90;99.90;;;;;;5003537;28;20517;-70
2024/01/05 03:44:26;;;;;;;1.20;0.70;;;7.90;99.90;;;;;;5002937;28;20029;-70
2024/01/05 03:46:51;;;;;;;0.98;0.45;;;7.90;99.90;;;;;;5005823;28;20030;-70
2024/01/05 03:49:17;;;;;;;3.05;0.80;;;7.90;99.90;;;;;;5007065;28;20552;-70
2024/01/05 03:51:43;;;;;;;2.40;0.40;;;7.90;99.90;;;;;;5004187;28;20285;-70
2024/01/05 03:54:09;;;;;;;0.47;0.30;;;7.90;99.90;;;;;;5006350;28;20152;-69
2024/01/05 03:56:42;;;;;;;1.95;0.40;;;7.80;99.90;;;;;;5005730;28;21225;-70
2024/01/05 03:59:08;;;;;;;0.93;0.50;;;7.80;99.90;;;;;;5009017;28;20029;-70
2024/01/05 04:01:33;;;;;;;1.13;0.32;;;7.80;99.90;;;;;;5005427;28;20383;-69
2024/01/05 04:03:59;;;;;;;1.63;0.60;;;7.80;99.90;;;;;;5008583;28;20994;-70
2024/01/05 04:06:25;;;;;;;2.35;0.60;;;7.80;99.90;;;;;;5004978;28;20518;-70
2024/01/05 04:08:53;;;;;;;1.60;0.30;;;7.90;99.90;;;;;;5005559;28;20038;-70
2024/01/05 04:11:20;;;;;;;1.42;0.38;;;7.90;99.90;;;;;;5002692;28;20045;-70
2024/01/05 04:13:46;;;;;;;2.10;0.40;;;7.90;99.90;;;;;;5007852;28;20025;-70
2024/01/05 04:16:12;;;;;;;1.73;0.25;;;7.90;99.90;;;;;;5005069;28;20026;-70
2024/01/05 04:18:38;;;;;;;0.40;0.20;;;7.90;99.90;;;;;;5006336;28;20479;-70
2024/01/05 04:21:03;;;;;;;2.30;0.30;;;7.80;99.90;;;;;;5007343;28;20041;-70
2024/01/05 04:23:29;;;;;;;1.35;0.68;;;7.70;99.90;;;;;;4988104;28;20139;-70
2024/01/05 04:25:55;;;;;;;1.90;0.60;;;7.50;99.90;;;;;;5005907;28;20549;-70
2024/01/05 04:28:21;;;;;;;1.98;0.80;;;7.50;99.90;;;;;;5007283;28;20128;-70
2024/01/05 04:30:47;;;;;;;2.20;0.98;;;7.50;99.90;;;;;;4986100;28;20518;-70
2024/01/05 04:33:12;;;;;;;4.20;2.00;;;7.40;99.90;;;;;;5005522;28;20040;-70
2024/01/05 04:35:38;;;;;;;3.95;2.22;;;7.30;99.90;;;;;;5006132;28;20381;-70
2024/01/05 04:38:03;;;;;;;10.50;5.00;;;7.20;99.90;;;;;;5005801;28;20034;-70
2024/01/05 04:40:29;;;;;;;5.75;3.10;;;7.10;99.90;;;;;;5007790;28;20095;-70
2024/01/05 04:42:55;;;;;;;3.95;1.73;;;7.00;99.90;;;;;;5010718;28;20124;-70
2024/01/05 04:45:20;;;;;;;5.10;2.25;;;6.80;99.90;;;;;;5011225;28;20588;-70
2024/01/05 04:47:46;;;;;;;4.15;1.95;;;6.60;99.90;;;;;;5013662;28;20512;-70
2024/01/05 04:50:12;;;;;;;4.05;1.67;;;6.40;99.90;;;;;;5000371;28;20617;-70
2024/01/05 04:52:38;;;;;;;4.30;1.27;;;6.30;99.90;;;;;;5010038;28;20639;-69
2024/01/05 04:55:04;;;;;;;1.85;0.50;;;6.20;99.90;;;;;;5012257;28;20034;-69
2024/01/05 04:57:30;;;;;;;1.40;0.73;;;6.10;99.90;;;;;;5010424;28;20033;-69
2024/01/05 04:59:56;;;;;;;0.95;0.40;;;6.10;99.90;;;;;;5007327;28;20033;-69
2024/01/05 05:02:22;;;;;;;3.75;1.42;;;6.10;99.90;;;;;;5010156;28;20340;-69
2024/01/05 05:04:48;;;;;;;1.92;0.70;;;6.10;99.90;;;;;;5012260;28;20087;-69
2024/01/05 05:07:14;;;;;;;1.17;0.40;;;6.10;99.90;;;;;;5009288;28;20041;-70
2024/01/05 05:09:40;;;;;;;0.95;0.63;;;6.10;99.90;;;;;;5015133;28;20308;-70
2024/01/05 05:12:06;;;;;;;2.08;0.82;;;6.10;99.90;;;;;;5013598;28;20757;-70
2024/01/05 05:14:31;;;;;;;1.75;0.50;;;5.90;99.90;;;;;;5006700;28;20025;-70
2024/01/05 05:16:57;;;;;;;10.13;0.80;;;5.70;99.90;;;;;;5009650;28;20053;-66
2024/01/05 05:19:23;;;;;;;6.80;3.67;;;5.60;99.90;;;;;;5009645;28;20100;-71
2024/01/05 05:21:48;;;;;;;5.22;3.28;;;5.70;99.90;;;;;;5008654;28;20780;-70
2024/01/05 05:24:14;;;;;;;4.05;2.95;;;5.70;99.90;;;;;;5012910;28;20033;-70
2024/01/05 05:26:41;;;;;;;3.95;2.15;;;5.60;99.90;;;;;;5016178;28;20159;-69
2024/01/05 05:29:07;;;;;;;2.78;1.38;;;5.70;99.90;;;;;;5014137;28;20025;-69
2024/01/05 05:31:32;;;;;;;1.85;0.90;;;5.60;99.90;;;;;;5010752;28;20450;-69
2024/01/05 05:33:58;;;;;;;3.78;1.10;;;5.50;99.90;;;;;;5014900;28;20090;-69
2024/01/05 05:36:23;;;;;;;1.88;1.33;;;5.30;99.90;;;;;;5016241;28;20037;-69
2024/01/05 05:38:49;;;;;;;4.57;2.90;;;5.30;99.90;;;;;;5014657;28;20465;-69
2024/01/05 05:41:15;;;;;;;2.08;1.48;;;5.10;99.90;;;;;;5012433;28;20054;-68
2024/01/05 05:43:41;;;;;;;0.90;0.57;;;4.90;99.90;;;;;;5013915;28;20057;-69
2024/01/05 05:46:06;;;;;;;2.15;0.77;;;4.90;99.90;;;;;;5011377;28;20034;-69
2024/01/05 05:48:32;;;;;;;3.55;1.02;;;4.70;99.90;;;;;;5016338;28;20362;-69
2024/01/05 05:50:57;;;;;;;1.42;1.15;;;4.60;99.90;;;;;;5016155;28;20037;-69
2024/01/05 05:53:23;;;;;;;3.63;1.33;;;4.70;99.90;;;;;;5017508;28;20129;-69
2024/01/05 05:55:49;;;;;;;6.68;1.40;;;4.70;99.90;;;;;;5012840;28;20044;-69
2024/01/05 05:58:14;;;;;;;3.53;1.08;;;4.70;99.90;;;;;;5009089;28;20101;-69
2024/01/05 06:00:40;;;;;;;1.38;0.80;;;4.70;99.90;;;;;;5018683;28;20120;-69
2024/01/05 06:03:06;;;;;;;2.33;1.58;;;4.60;99.90;;;;;;5014397;28;20051;-69
2024/01/05 06:05:31;;;;;;;3.17;2.20;;;4.60;99.90;;;;;;5019047;28;20100;-69
2024/01/05 06:07:57;;;;;;;8.70;5.00;;;4.60;99.90;;;;;;5015661;28;20030;-69
2024/01/05 06:10:23;;;;;;;4.90;3.10;;;4.60;99.90;;;;;;5015901;28;20490;-69
2024/01/05 06:12:48;;;;;;;4.35;2.83;;;4.70;99.90;;;;;;5021720;28;20021;-69
2024/01/05 06:15:14;;;;;;;3.15;1.45;;;4.70;99.90;;;;;;5018347;28;20041;-69
2024/01/05 06:17:39;;;;;;;7.13;3.22;;;4.80;99.90;;;;;;5017637;28;20100;-69
2024/01/05 06:20:07;;;;;;;6.18;2.00;;;4.60;99.90;;;;;;5013888;28;20414;-69
2024/01/05 06:22:33;;;;;;;1.75;0.90;;;4.40;99.90;;;;;;5018310;28;20022;-70
2024/01/05 06:24:59;;;;;;;6.40;2.65;;;4.30;99.90;;;;;;5017437;28;20026;-70
2024/01/05 06:27:24;;;;;;;4.32;3.20;;;4.30;99.90;;;;;;5015794;28;20026;-71
2024/01/05 06:29:50;;;;;;;4.28;1.75;;;4.30;99.90;;;;;;5014480;28;20156;-71
2024/01/05 06:32:15;;;;;;;2.20;1.42;;;4.20;99.90;;;;;;5016424;28;20022;-71
2024/01/05 06:34:41;;;;;;;3.70;1.80;;;3.90;99.90;;;;;;5014938;28;20037;-70
2024/01/05 06:37:06;;;;;;;6.20;1.75;;;3.50;99.90;;;;;;5014601;28;20030;-70
2024/01/05 06:39:32;;;;;;;2.78;1.60;;;3.10;99.90;;;;;;5015329;28;20501;-70
2024/01/05 06:41:58;;;;;;;4.13;1.92;;;3.00;99.90;;;;;;5013028;28;20113;-69
2024/01/05 06:44:23;;;;;;;3.83;2.03;;;3.10;99.90;;;;;;5015629;28;20525;-69
2024/01/05 06:46:50;;;;;;;4.10;2.08;;;3.10;99.90;;;;;;5011539;28;20034;-67
2024/01/05 06:49:16;;;;;;;3.08;1.77;;;3.30;99.90;;;;;;5019419;28;20030;-68
2024/01/05 06:51:42;;;;;;;5.03;1.17;;;3.40;99.90;;;;;;5019350;28;20037;-68
2024/01/05 06:54:07;;;;;;;2.05;1.10;;;3.30;99.90;;;;;;5016082;28;20029;-68
2024/01/05 06:56:33;;;;;;;1.58;0.95;;;3.30;99.90;;;;;;5017422;28;20124;-68
2024/01/05 06:59:01;;;;;;;4.03;1.60;;;3.50;99.90;;;;;;5016727;28;20033;-70
2024/01/05 07:01:27;;;;;;;3.90;2.00;;;3.70;99.90;;;;;;5012749;28;20504;-70
2024/01/05 07:03:53;;;;;;;3.95;1.35;;;3.80;99.90;;;;;;5015211;28;20032;-71
2024/01/05 07:06:18;;;;;;;1.23;0.77;;;3.90;99.90;;;;;;5020178;28;20041;-71
2024/01/05 07:08:44;;;;;;;3.75;1.55;;;3.90;99.90;;;;;;5015391;28;20489;-71
2024/01/05 07:11:18;;;;;;;5.80;1.80;;;4.00;99.90;;;;;;5017517;28;20033;-71
2024/01/05 07:13:44;;;;;;;2.42;1.70;;;4.10;99.90;;;;;;5014048;28;20037;-70
2024/01/05 07:16:15;;;;;;;6.80;1.60;;;4.20;99.90;;;;;;5018339;28;20036;-70
2024/01/05 07:18:41;;;;;;;4.75;1.92;;;4.40;99.90;;;;;;5016573;28;20025;-70
2024/01/05 07:21:06;;;;;;;4.38;1.85;;;4.50;99.90;;;;;;5016857;28;20045;-70
2024/01/05 07:23:32;;;;;;;6.50;1.15;;;4.60;99.90;;;;;;4998404;28;20671;-70
2024/01/05 07:26:00;;;;;;;5.03;1.08;;;4.80;99.90;;;;;;5013707;28;20065;-71
2024/01/05 07:28:25;;;;;;;6.18;3.35;;;4.90;99.90;;;;;;5015546;28;20033;-68
2024/01/05 07:30:51;;;;;;;4.75;2.83;;;5.00;99.90;;;;;;5014676;28;20040;-70
2024/01/05 07:33:16;;;;;;;9.25;4.43;;;5.10;99.90;;;;;;5016155;28;20401;-70
2024/01/05 07:35:42;;;;;;;10.70;5.15;;;5.00;99.90;;;;;;5012182;28;20033;-70
2024/01/05 07:38:08;;;;;;;5.00;2.80;;;5.10;99.90;;;;;;5015567;28;20237;-70
2024/01/05 07:40:33;;;;;;;6.82;4.03;;;5.20;99.90;;;;;;5012552;28;20115;-70
2024/01/05 07:42:59;;;;;;;10.88;7.55;;;5.30;99.90;;;;;;5013442;28;20037;-70
2024/01/05 07:45:24;;;;;;;4.50;3.03;;;5.50;99.90;;;;;;5013987;28;20087;-70
2024/01/05 07:47:50;;;;;;;4.30;2.10;;;5.70;99.90;;;;;;5014216;28;20030;-71
2024/01/05 07:50:16;;;;;;;4.40;3.00;;;5.90;99.90;;;;;;5012226;28;20098;-69
2024/01/05 07:52:43;;;;;;;2.70;1.50;;;6.10;99.90;;;;;;4999430;28;20045;-70
2024/01/05 07:55:09;;;;;;;14.60;6.18;;;6.30;99.90;;;;;;5015121;28;20029;-69
2024/01/05 07:57:35;;;;;;;10.45;5.18;;;6.50;99.90;;;;;;5017883;28;20048;-69
2024/01/05 08:00:01;;;;;;;9.40;4.18;;;6.70;99.90;;;;;;5013220;28;20021;-69
2024/01/05 08:02:26;;;;;;;8.25;4.75;;;6.90;99.90;;;;;;5011491;28;20033;-68
2024/01/05 08:04:52;;;;;;;7.63;3.72;;;7.20;99.90;;;;;;5010366;28;20033;-69
2024/01/05 08:07:18;;;;;;;6.43;3.00;;;7.40;99.90;;;;;;5013549;28;20036;-68
2024/01/05 08:09:43;;;;;;;10.25;6.60;;;7.50;99.90;;;;;;5011319;28;20079;-69
2024/01/05 08:12:09;;;;;;;7.90;4.38;;;7.60;99.90;;;;;;5011477;28;20674;-69
2024/01/05 08:14:35;;;;;;;12.73;6.60;;;7.80;99.90;;;;;;5014391;28;20092;-68
2024/01/05 08:17:00;;;;;;;6.95;4.22;;;7.90;99.90;;;;;;5014172;28;20087;-69
2024/01/05 08:19:26;;;;;;;3.53;2.47;;;8.10;99.90;;;;;;5016357;28;20041;-70
2024/01/05 08:21:52;;;;;;;9.23;3.53;;;8.10;99.90;;;;;;5013170;28;20670;-69
2024/01/05 08:24:17;;;;;;;9.07;4.50;;;8.30;99.90;;;;;;5016498;28;20040;-69
2024/01/05 08:26:44;;;;;;;6.60;3.25;;;8.40;99.90;;;;;;5013751;28;20047;-69
2024/01/05 08:29:10;;;;;;;7.53;3.97;;;8.50;99.90;;;;;;5014706;28;20095;-69
2024/01/05 08:31:35;;;;;;;5.13;2.13;;;8.70;99.90;;;;;;5013723;28;20119;-69
2024/01/05 08:34:01;;;;;;;8.57;3.33;;;8.80;99.90;;;;;;5013210;28;20033;-69
2024/01/05 08:36:28;;;;;;;8.57;3.92;;;8.90;99.90;;;;;;5014326;28;20507;-69
2024/01/05 08:38:54;;;;;;;10.95;5.30;;;8.90;99.90;;;;;;5009640;28;20424;-70
2024/01/05 08:41:19;;;;;;;6.93;2.90;;;8.90;99.90;;;;;;5010730;28;20049;-70
2024/01/05 08:43:45;;;;;;;5.28;1.88;;;8.70;99.90;;;;;;5007263;28;20053;-71
2024/01/05 08:46:11;;;;;;;1.90;1.02;;;8.70;99.90;;;;;;5012455;28;20034;-70
2024/01/05 08:48:38;;;;;;;4.50;1.73;;;8.60;99.90;;;;;;5007913;28;20918;-70
2024/01/05 08:51:04;;;;;;;7.68;2.45;;;8.60;99.90;;;;;;5012214;28;20275;-73
2024/01/05 08:53:30;;;;;;;6.18;3.40;;;8.60;99.90;;;;;;5001546;28;20571;-72
2024/01/05 08:55:55;;;;;;;4.65;2.50;;;8.80;99.90;;;;;;5011882;28;20049;-73
2024/01/05 08:58:21;;;;;;;5.03;1.50;;;8.90;99.90;;;;;;4999196;28;20473;-73
2024/01/05 09:00:47;;;;;;;3.63;1.40;;;9.00;99.90;;;;;;5014575;28;20037;-72
2024/01/05 09:03:12;;;;;;;4.45;1.95;;;9.10;99.90;;;;;;5012187;28;20696;-71
2024/01/05 09:05:38;;;;;;;3.80;1.30;;;9.20;99.90;;;;;;5012261;28;20518;-72
2024/01/05 09:08:04;;;;;;;3.10;1.50;;;9.20;99.90;;;;;;5016725;28;20494;-69
2024/01/05 09:10:32;;;;;;;3.40;1.60;;;9.30;99.90;;;;;;5010309;28;20030;-68
2024/01/05 09:12:59;;;;;;;3.75;1.88;;;9.30;99.90;;;;;;5006677;28;20108;-68
2024/01/05 09:15:25;;;;;;;4.00;1.77;;;9.30;99.90;;;;;;5003521;28;20026;-68
2024/01/05 09:17:51;;;;;;;2.55;1.55;;;9.20;99.90;;;;;;5008381;28;20033;-70
2024/01/05 09:20:17;;;;;;;2.33;1.10;;;9.20;99.90;;;;;;5007780;28;20425;-69
2024/01/05 09:22:42;;;;;;;2.38;0.93;;;9.50;99.90;;;;;;5012455;28;20049;-69
2024/01/05 09:25:09;;;;;;;2.55;0.93;;;9.90;99.90;;;;;;4995584;28;20065;-67
2024/01/05 09:27:35;;;;;;;10.93;3.13;;;10.20;99.90;;;;;;5015037;28;20044;-69
2024/01/05 09:30:00;;;;;;;3.83;0.70;;;10.70;99.90;;;;;;5009261;28;20072;-69
2024/01/05 09:32:26;;;;;;;1.52;0.60;;;10.80;99.90;;;;;;5010700;28;20523;-68
2024/01/05 09:34:51;;;;;;;1.67;0.82;;;10.60;99.90;;;;;;5017759;28;20034;-69
2024/01/05 09:37:17;;;;;;;2.33;0.70;;;10.30;99.90;;;;;;5016802;28;20509;-69
2024/01/05 09:39:42;;;;;;;2.53;0.82;;;10.00;99.90;;;;;;5007135;28;20080;-69
2024/01/05 09:42:08;;;;;;;1.75;0.63;;;9.70;99.90;;;;;;5017360;28;20041;-69
2024/01/05 09:44:35;;;;;;;3.80;0.70;;;9.40;99.90;;;;;;5016061;28;20105;-71
2024/01/05 09:47:01;;;;;;;1.60;0.50;;;9.20;99.90;;;;;;5013431;28;20228;-72
2024/01/05 09:49:29;;;;;;;2.40;0.60;;;9.20;99.90;;;;;;4993156;28;20183;-72
2024/01/05 09:51:58;;;;;;;1.88;0.70;;;9.10;99.90;;;;;;5023802;28;20067;-72
2024/01/05 09:54:23;;;;;;;3.60;0.95;;;9.00;99.90;;;;;;5016119;28;20029;-72
2024/01/05 09:56:50;;;;;;;3.13;0.80;;;9.00;99.90;;;;;;5020025;28;20037;-71
2024/01/05 09:59:17;;;;;;;8.32;1.88;;;8.90;99.90;;;;;;5012575;28;20021;-71
2024/01/05 10:01:47;;;;;;;2.10;0.80;;;9.00;99.90;;;;;;5015817;28;20045;-71
2024/01/05 10:04:13;;;;;;;1.63;0.70;;;9.10;99.90;;;;;;5017821;28;20060;-71
2024/01/05 10:06:39;;;;;;;2.15;1.20;;;9.10;99.90;;;;;;5013878;28;20481;-71
2024/01/05 10:09:05;;;;;;;2.20;1.13;;;9.20;99.90;;;;;;5019818;28;20032;-71
2024/01/05 10:11:36;;;;;;;4.72;0.98;;;9.30;99.90;;;;;;5016895;28;20075;-70
2024/01/05 10:14:03;;;;;;;1.90;1.08;;;9.40;99.90;;;;;;5016252;28;20275;-70
2024/01/05 10:16:49;;;;;;;3.72;1.77;;;9.60;99.90;;;;;;5008624;28;20580;-71
2024/01/05 10:19:19;;;;;;;2.88;1.30;;;9.70;99.90;;;;;;5016926;28;21213;-70
2024/01/05 10:21:48;;;;;;;5.75;1.40;;;9.70;99.90;;;;;;5017775;28;20060;-68
2024/01/05 10:24:26;;;;;;;5.50;3.25;;;9.60;99.90;;;;;;5011442;28;20036;-68
2024/01/05 10:27:13;;;;;;;35.78;21.75;;;9.50;99.90;;;;;;5012156;28;20281;-68
2024/01/05 10:29:43;;;;;;;9.40;5.57;;;9.50;99.90;;;;;;5014327;28;20033;-69
2024/01/05 10:32:15;;;;;;;9.70;4.25;;;9.60;99.90;;;;;;5017779;28;20065;-70
2024/01/05 10:34:46;;;;;;;7.22;2.55;;;9.70;99.90;;;;;;5012015;28;20022;-69
2024/01/05 10:37:13;;;;;;;3.35;1.30;;;9.80;99.90;;;;;;5010238;28;20041;-70
2024/01/05 10:39:44;;;;;;;2.20;1.42;;;10.00;99.90;;;;;;5017244;28;20187;-70
2024/01/05 10:42:24;;;;;;;2.30;1.02;;;10.10;99.90;;;;;;5012375;28;20041;-69
2024/01/05 10:44:52;;;;;;;2.28;1.25;;;10.20;99.90;;;;;;5013504;28;20112;-69
2024/01/05 10:47:20;;;;;;;3.63;1.88;;;10.20;99.90;;;;;;5017333;28;20029;-70
2024/01/05 10:49:48;;;;;;;2.60;1.40;;;10.20;99.90;;;;;;5016395;28;20508;-69
2024/01/05 10:52:15;;;;;;;2.97;1.15;;;10.30;99.90;;;;;;5020916;28;20033;-69
2024/01/05 10:54:42;;;;;;;2.55;1.13;;;10.30;99.90;;;;;;5017231;28;20098;-69
2024/01/05 10:57:10;;;;;;;3.33;1.45;;;10.30;99.90;;;;;;5011523;28;20033;-69
2024/01/05 10:59:36;;;;;;;3.10;1.15;;;10.30;99.90;;;;;;5016357;28;20029;-69
2024/01/05 11:02:09;;;;;;;3.33;1.17;;;10.30;99.90;;;;;;5013350;28;20033;-70
2024/01/05 11:04:38;;;;;;;2.35;0.95;;;10.30;99.90;;;;;;5011582;28;20792;-69
2024/01/05 11:07:03;;;;;;;3.40;1.20;;;10.30;99.90;;;;;;5011995;28;20057;-69
2024/01/05 11:09:46;;;;;;;2.97;1.38;;;10.30;99.90;;;;;;5013354;28;20365;-69
2024/01/05 11:12:31;;;;;;;3.25;0.75;;;10.30;99.90;;;;;;5009701;28;20025;-71
2024/01/05 11:15:30;;;;;;;2.83;0.80;;;10.40;99.90;;;;;;5010562;28;20017;-67
2024/01/05 11:18:50;;;;;;;3.78;2.20;;;10.40;99.90;;;;;;5013791;28;20156;-67
2024/01/05 11:21:55;;;;;;;4.80;2.35;;;10.40;99.90;;;;;;4933778;28;20129;-68
2024/01/05 11:24:22;;;;;;;3.72;2.00;;;10.40;99.90;;;;;;5016506;28;20406;-68
2024/01/05 11:26:48;;;;;;;2.08;1.20;;;10.50;99.90;;;;;;5009964;28;20113;-68
2024/01/05 11:29:33;;;;;;;3.30;1.30;;;10.50;99.90;;;;;;5016535;28;20110;-68
2024/01/05 11:31:59;;;;;;;3.15;1.25;;;10.50;99.90;;;;;;4995099;28;20037;-69
2024/01/05 11:34:35;;;;;;;2.17;0.90;;;10.60;99.90;;;;;;5016209;28;20060;-70
2024/01/05 11:37:02;;;;;;;1.77;1.10;;;10.60;99.90;;;;;;5014733;28;20449;-68
2024/01/05 11:39:45;;;;;;;2.75;1.13;;;10.50;99.90;;;;;;5006103;28;20044;-68
2024/01/05 11:42:31;;;;;;;5.85;1.00;;;10.50;99.90;;;;;;5012074;28;20053;-69
2024/01/05 11:44:59;;;;;;;2.03;0.90;;;10.60;99.90;;;;;;5011101;28;20103;-69
2024/01/05 11:47:44;;;;;;;2.65;0.95;;;10.60;99.90;;;;;;5014026;28;20437;-69
2024/01/05 11:50:27;;;;;;;2.50;1.30;;;10.60;99.90;;;;;;5013968;28;20072;-69
2024/01/05 11:53:19;;;;;;;2.15;1.13;;;10.70;99.90;;;;;;5009578;28;20454;-68
2024/01/05 11:55:56;;;;;;;3.05;0.88;;;10.70;99.90;;;;;;5011183;28;20029;-68
2024/01/05 11:58:22;;;;;;;2.95;0.98;;;10.70;99.90;;;;;;5011298;28;20025;-68
2024/01/05 12:00:49;;;;;;;3.08;0.90;;;10.70;99.90;;;;;;5016543;28;20073;-69
2024/01/05 12:03:17;;;;;;;2.05;1.00;;;10.60;99.90;;;;;;5009067;28;20113;-69
2024/01/05 12:05:43;;;;;;;2.90;1.70;;;10.70;99.90;;;;;;5016652;28;20478;-69
2024/01/05 12:08:13;;;;;;;2.17;1.05;;;10.70;99.90;;;;;;5012096;28;20052;-68
2024/01/05 12:10:40;;;;;;;2.30;1.52;;;10.70;99.90;;;;;;5010670;28;20485;-70
2024/01/05 12:13:06;;;;;;;4.22;1.40;;;10.60;99.90;;;;;;5012009;28;20037;-69
2024/01/05 12:15:33;;;;;;;4.30;1.95;;;10.60;99.90;;;;;;5017499;28;20399;-69
2024/01/05 12:18:08;;;;;;;3.53;1.50;;;10.50;99.90;;;;;;5011175;28;20022;-69
2024/01/05 12:20:34;;;;;;;5.35;2.95;;;10.50;99.90;;;;;;5014270;28;20103;-70
2024/01/05 12:23:01;;;;;;;4.60;1.70;;;10.40;99.90;;;;;;5012459;28;20492;-69
2024/01/05 12:25:27;;;;;;;3.88;1.80;;;10.40;99.90;;;;;;5012286;28;20033;-69
2024/01/05 12:27:53;;;;;;;7.90;4.35;;;10.30;99.90;;;;;;5017131;28;20021;-67
2024/01/05 12:30:19;;;;;;;11.30;6.93;;;10.30;99.90;;;;;;5012933;28;20091;-66
2024/01/05 12:32:47;;;;;;;9.68;5.10;;;10.20;99.90;;;;;;5012214;28;20037;-66
2024/01/05 12:35:13;;;;;;;9.80;5.50;;;10.10;99.90;;;;;;5015181;28;20359;-66
2024/01/05 12:37:52;;;;;;;3.58;1.60;;;10.10;99.90;;;;;;5014106;28;20034;-67
2024/01/05 12:40:28;;;;;;;3.42;2.00;;;10.20;99.90;;;;;;4996309;28;20040;-67
2024/01/05 12:42:54;;;;;;;5.32;3.08;;;10.20;99.90;;;;;;5005903;28;20030;-67
2024/01/05 12:45:22;;;;;;;4.78;1.90;;;10.20;99.90;;;;;;5011846;28;20501;-67
2024/01/05 12:47:51;;;;;;;3.40;2.08;;;10.30;99.90;;;;;;5015356;28;20096;-67
2024/01/05 12:50:28;;;;;;;2.75;1.98;;;10.30;99.90;;;;;;5015617;28;20045;-68
2024/01/05 12:52:54;;;;;;;6.78;4.18;;;10.40;99.90;;;;;;5013274;28;20607;-69
2024/01/05 12:55:27;;;;;;;3.90;2.13;;;10.40;99.90;;;;;;5012783;28;20468;-69